sensor_id;sensor_type;location;lat;lon;timestamp;temperature;humidity
36774;DHT22;22730;51.980;5.934;2023-08-21T00:02:21;27.90;53.30
36774;DHT22;22730;51.980;5.934;2023-08-21T00:04:46;27.80;53.40
36774;DHT22;22730;51.980;5.934;2023-08-21T00:07:12;27.90;53.40
36774;DHT22;22730;51.980;5.934;2023-08-21T00:09:38;27.80;53.40
36774;DHT22;22730;51.980;5.934;2023-08-21T00:12:04;27.80;53.40
36774;DHT22;22730;51.980;5.934;2023-08-21T00:14:30;27.80;53.40
36774;DHT22;22730;51.980;5.934;2023-08-21T00:16:56;27.80;53.40
36774;DHT22;22730;51.980;5.934;2023-08-21T00:19:21;27.90;53.40
36774;DHT22;22730;51.980;5.934;2023-08-21T00:21:47;27.90;53.30
36774;DHT22;22730;51.980;5.934;2023-08-21T00:24:13;27.90;53.40
36774;DHT22;22730;51.980;5.934;2023-08-21T00:26:39;27.90;53.50
36774;DHT22;22730;51.980;5.934;2023-08-21T00:29:05;27.80;53.60
36774;DHT22;22730;51.980;5.934;2023-08-21T00:31:31;27.80;53.60
36774;DHT22;22730;51.980;5.934;2023-08-21T00:33:57;27.80;53.60
36774;DHT22;22730;51.980;5.934;2023-08-21T00:36:23;27.80;53.60
36774;DHT22;22730;51.980;5.934;2023-08-21T00:38:49;27.80;53.70
36774;DHT22;22730;51.980;5.934;2023-08-21T00:41:15;27.70;53.70
36774;DHT22;22730;51.980;5.934;2023-08-21T00:43:40;27.70;53.70
36774;DHT22;22730;51.980;5.934;2023-08-21T00:46:06;27.80;53.80
36774;DHT22;22730;51.980;5.934;2023-08-21T00:48:33;27.80;53.70
36774;DHT22;22730;51.980;5.934;2023-08-21T00:51:01;27.80;53.70
36774;DHT22;22730;51.980;5.934;2023-08-21T00:53:27;27.80;53.70
36774;DHT22;22730;51.980;5.934;2023-08-21T00:55:53;27.80;53.70
36774;DHT22;22730;51.980;5.934;2023-08-21T00:58:19;27.80;53.70
36774;DHT22;22730;51.980;5.934;2023-08-21T01:00:45;27.80;53.60
36774;DHT22;22730;51.980;5.934;2023-08-21T01:03:13;27.80;54.30
36774;DHT22;22730;51.980;5.934;2023-08-21T01:05:39;27.80;53.70
36774;DHT22;22730;51.980;5.934;2023-08-21T01:11:42;27.80;53.70
36774;DHT22;22730;51.980;5.934;2023-08-21T01:16:37;27.80;53.90
36774;DHT22;22730;51.980;5.934;2023-08-21T01:19:09;27.70;53.90
36774;DHT22;22730;51.980;5.934;2023-08-21T01:21:38;27.70;54.00
36774;DHT22;22730;51.980;5.934;2023-08-21T01:24:04;27.70;53.90
36774;DHT22;22730;51.980;5.934;2023-08-21T01:26:29;27.70;53.80
36774;DHT22;22730;51.980;5.934;2023-08-21T01:28:55;27.60;54.00
36774;DHT22;22730;51.980;5.934;2023-08-21T01:31:33;27.60;54.00
36774;DHT22;22730;51.980;5.934;2023-08-21T01:34:04;27.70;54.00
36774;DHT22;22730;51.980;5.934;2023-08-21T01:36:32;27.70;54.00
36774;DHT22;22730;51.980;5.934;2023-08-21T01:38:59;27.70;54.00
36774;DHT22;22730;51.980;5.934;2023-08-21T01:41:25;27.70;54.10
36774;DHT22;22730;51.980;5.934;2023-08-21T01:43:53;27.60;54.00
36774;DHT22;22730;51.980;5.934;2023-08-21T01:46:19;27.70;54.10
36774;DHT22;22730;51.980;5.934;2023-08-21T01:48:45;27.70;54.00
36774;DHT22;22730;51.980;5.934;2023-08-21T01:51:11;27.70;54.00
36774;DHT22;22730;51.980;5.934;2023-08-21T01:53:37;27.70;54.10
36774;DHT22;22730;51.980;5.934;2023-08-21T01:56:03;27.70;54.20
36774;DHT22;22730;51.980;5.934;2023-08-21T01:58:28;27.60;54.20
36774;DHT22;22730;51.980;5.934;2023-08-21T02:00:54;27.60;54.20
36774;DHT22;22730;51.980;5.934;2023-08-21T02:03:20;27.60;54.20
36774;DHT22;22730;51.980;5.934;2023-08-21T02:05:46;27.60;54.10
36774;DHT22;22730;51.980;5.934;2023-08-21T02:08:13;27.60;54.20
36774;DHT22;22730;51.980;5.934;2023-08-21T02:10:52;27.70;54.20
36774;DHT22;22730;51.980;5.934;2023-08-21T02:13:18;27.70;54.10
36774;DHT22;22730;51.980;5.934;2023-08-21T02:15:44;27.70;54.10
36774;DHT22;22730;51.980;5.934;2023-08-21T02:18:10;27.70;54.10
36774;DHT22;22730;51.980;5.934;2023-08-21T02:20:38;27.70;54.20
36774;DHT22;22730;51.980;5.934;2023-08-21T02:23:04;27.70;54.10
36774;DHT22;22730;51.980;5.934;2023-08-21T02:25:31;27.70;54.10
36774;DHT22;22730;51.980;5.934;2023-08-21T02:28:00;27.70;54.10
36774;DHT22;22730;51.980;5.934;2023-08-21T02:30:28;27.60;54.10
36774;DHT22;22730;51.980;5.934;2023-08-21T02:32:54;27.60;54.20
36774;DHT22;22730;51.980;5.934;2023-08-21T02:35:20;27.60;54.40
36774;DHT22;22730;51.980;5.934;2023-08-21T02:37:46;27.60;54.40
36774;DHT22;22730;51.980;5.934;2023-08-21T02:40:12;27.60;54.40
36774;DHT22;22730;51.980;5.934;2023-08-21T02:42:38;27.60;54.40
36774;DHT22;22730;51.980;5.934;2023-08-21T02:45:04;27.60;54.40
36774;DHT22;22730;51.980;5.934;2023-08-21T02:47:40;27.60;54.40
36774;DHT22;22730;51.980;5.934;2023-08-21T02:50:08;27.60;54.40
36774;DHT22;22730;51.980;5.934;2023-08-21T02:52:34;27.60;54.30
36774;DHT22;22730;51.980;5.934;2023-08-21T02:55:01;27.60;54.30
36774;DHT22;22730;51.980;5.934;2023-08-21T02:57:28;27.60;54.40
36774;DHT22;22730;51.980;5.934;2023-08-21T02:59:54;27.50;54.40
36774;DHT22;22730;51.980;5.934;2023-08-21T03:02:21;27.60;54.50
36774;DHT22;22730;51.980;5.934;2023-08-21T03:04:47;27.60;54.60
36774;DHT22;22730;51.980;5.934;2023-08-21T03:07:14;27.50;54.40
36774;DHT22;22730;51.980;5.934;2023-08-21T03:09:40;27.60;54.50
36774;DHT22;22730;51.980;5.934;2023-08-21T03:12:07;27.60;54.40
36774;DHT22;22730;51.980;5.934;2023-08-21T03:14:33;27.50;54.40
36774;DHT22;22730;51.980;5.934;2023-08-21T03:16:59;27.50;54.40
36774;DHT22;22730;51.980;5.934;2023-08-21T03:19:25;27.50;54.50
36774;DHT22;22730;51.980;5.934;2023-08-21T03:21:51;27.50;54.50
36774;DHT22;22730;51.980;5.934;2023-08-21T03:24:17;27.50;54.50
36774;DHT22;22730;51.980;5.934;2023-08-21T03:26:43;27.50;54.50
36774;DHT22;22730;51.980;5.934;2023-08-21T03:29:10;27.50;54.50
36774;DHT22;22730;51.980;5.934;2023-08-21T03:31:35;27.50;54.50
36774;DHT22;22730;51.980;5.934;2023-08-21T03:34:01;27.50;54.50
36774;DHT22;22730;51.980;5.934;2023-08-21T03:36:27;27.50;54.50
36774;DHT22;22730;51.980;5.934;2023-08-21T03:39:01;27.50;54.50
36774;DHT22;22730;51.980;5.934;2023-08-21T03:41:28;27.50;54.50
36774;DHT22;22730;51.980;5.934;2023-08-21T03:43:53;27.50;54.50
36774;DHT22;22730;51.980;5.934;2023-08-21T03:46:19;27.50;54.50
36774;DHT22;22730;51.980;5.934;2023-08-21T03:48:45;27.50;54.50
36774;DHT22;22730;51.980;5.934;2023-08-21T03:51:11;27.40;54.50
36774;DHT22;22730;51.980;5.934;2023-08-21T03:53:37;27.50;54.60
36774;DHT22;22730;51.980;5.934;2023-08-21T03:56:03;27.50;54.60
36774;DHT22;22730;51.980;5.934;2023-08-21T03:58:29;27.50;54.50
36774;DHT22;22730;51.980;5.934;2023-08-21T04:00:56;27.50;54.40
36774;DHT22;22730;51.980;5.934;2023-08-21T04:03:23;27.50;54.30
36774;DHT22;22730;51.980;5.934;2023-08-21T04:05:49;27.60;54.40
36774;DHT22;22730;51.980;5.934;2023-08-21T04:08:15;27.50;54.30
36774;DHT22;22730;51.980;5.934;2023-08-21T04:10:41;27.50;54.30
36774;DHT22;22730;51.980;5.934;2023-08-21T04:13:07;27.50;54.30
36774;DHT22;22730;51.980;5.934;2023-08-21T04:15:34;27.50;54.30
36774;DHT22;22730;51.980;5.934;2023-08-21T04:18:04;27.50;54.40
36774;DHT22;22730;51.980;5.934;2023-08-21T04:20:31;27.40;54.50
36774;DHT22;22730;51.980;5.934;2023-08-21T04:22:56;27.40;54.60
36774;DHT22;22730;51.980;5.934;2023-08-21T04:25:22;27.30;54.60
36774;DHT22;22730;51.980;5.934;2023-08-21T04:27:48;27.20;54.70
36774;DHT22;22730;51.980;5.934;2023-08-21T04:30:14;27.20;54.80
36774;DHT22;22730;51.980;5.934;2023-08-21T04:32:40;27.10;54.80
36774;DHT22;22730;51.980;5.934;2023-08-21T04:35:08;27.10;54.80
36774;DHT22;22730;51.980;5.934;2023-08-21T04:37:34;27.10;54.70
36774;DHT22;22730;51.980;5.934;2023-08-21T04:40:01;27.10;54.60
36774;DHT22;22730;51.980;5.934;2023-08-21T04:42:27;27.10;54.60
36774;DHT22;22730;51.980;5.934;2023-08-21T04:44:53;27.10;54.50
36774;DHT22;22730;51.980;5.934;2023-08-21T04:47:26;27.20;54.50
36774;DHT22;22730;51.980;5.934;2023-08-21T04:49:59;27.00;54.50
36774;DHT22;22730;51.980;5.934;2023-08-21T04:52:26;26.80;54.90
36774;DHT22;22730;51.980;5.934;2023-08-21T04:54:53;26.80;55.00
36774;DHT22;22730;51.980;5.934;2023-08-21T04:57:20;26.80;54.90
36774;DHT22;22730;51.980;5.934;2023-08-21T04:59:48;26.80;54.90
36774;DHT22;22730;51.980;5.934;2023-08-21T05:02:14;26.80;54.80
36774;DHT22;22730;51.980;5.934;2023-08-21T05:04:40;26.80;54.80
36774;DHT22;22730;51.980;5.934;2023-08-21T05:07:08;26.90;54.90
36774;DHT22;22730;51.980;5.934;2023-08-21T05:09:34;26.80;54.80
36774;DHT22;22730;51.980;5.934;2023-08-21T05:12:00;26.80;54.70
36774;DHT22;22730;51.980;5.934;2023-08-21T05:14:26;26.80;54.70
36774;DHT22;22730;51.980;5.934;2023-08-21T05:16:52;26.90;54.60
36774;DHT22;22730;51.980;5.934;2023-08-21T05:19:19;26.80;54.60
36774;DHT22;22730;51.980;5.934;2023-08-21T05:21:45;26.80;54.60
36774;DHT22;22730;51.980;5.934;2023-08-21T05:24:11;26.80;54.60
36774;DHT22;22730;51.980;5.934;2023-08-21T05:26:42;26.90;54.50
36774;DHT22;22730;51.980;5.934;2023-08-21T05:29:08;26.90;54.40
36774;DHT22;22730;51.980;5.934;2023-08-21T05:31:34;26.90;54.40
36774;DHT22;22730;51.980;5.934;2023-08-21T05:33:59;26.60;54.90
36774;DHT22;22730;51.980;5.934;2023-08-21T05:36:25;26.60;55.10
36774;DHT22;22730;51.980;5.934;2023-08-21T05:38:52;26.60;55.20
36774;DHT22;22730;51.980;5.934;2023-08-21T05:41:18;26.60;55.10
36774;DHT22;22730;51.980;5.934;2023-08-21T05:43:45;26.60;55.00
36774;DHT22;22730;51.980;5.934;2023-08-21T05:46:12;26.70;54.90
36774;DHT22;22730;51.980;5.934;2023-08-21T05:48:38;26.80;54.90
36774;DHT22;22730;51.980;5.934;2023-08-21T05:51:03;26.80;54.80
36774;DHT22;22730;51.980;5.934;2023-08-21T05:53:31;26.80;54.80
36774;DHT22;22730;51.980;5.934;2023-08-21T05:55:57;26.80;54.70
36774;DHT22;22730;51.980;5.934;2023-08-21T05:58:23;26.80;54.70
36774;DHT22;22730;51.980;5.934;2023-08-21T06:00:49;26.80;54.70
36774;DHT22;22730;51.980;5.934;2023-08-21T06:03:14;26.90;54.60
36774;DHT22;22730;51.980;5.934;2023-08-21T06:06:00;26.90;54.60
36774;DHT22;22730;51.980;5.934;2023-08-21T06:08:26;26.90;54.60
36774;DHT22;22730;51.980;5.934;2023-08-21T06:10:53;26.90;54.60
36774;DHT22;22730;51.980;5.934;2023-08-21T06:13:19;26.90;54.60
36774;DHT22;22730;51.980;5.934;2023-08-21T06:15:48;26.90;54.50
36774;DHT22;22730;51.980;5.934;2023-08-21T06:18:14;26.90;54.60
36774;DHT22;22730;51.980;5.934;2023-08-21T06:20:44;27.00;54.70
36774;DHT22;22730;51.980;5.934;2023-08-21T06:23:10;27.00;54.60
36774;DHT22;22730;51.980;5.934;2023-08-21T06:25:36;27.10;54.60
36774;DHT22;22730;51.980;5.934;2023-08-21T06:28:03;27.10;54.50
36774;DHT22;22730;51.980;5.934;2023-08-21T06:30:29;27.20;54.40
36774;DHT22;22730;51.980;5.934;2023-08-21T06:32:55;27.30;54.40
36774;DHT22;22730;51.980;5.934;2023-08-21T06:35:23;27.30;54.30
36774;DHT22;22730;51.980;5.934;2023-08-21T06:37:50;27.30;54.20
36774;DHT22;22730;51.980;5.934;2023-08-21T06:40:16;27.20;54.30
36774;DHT22;22730;51.980;5.934;2023-08-21T06:42:41;27.20;54.20
36774;DHT22;22730;51.980;5.934;2023-08-21T06:45:08;27.20;54.20
36774;DHT22;22730;51.980;5.934;2023-08-21T06:47:34;27.30;54.10
36774;DHT22;22730;51.980;5.934;2023-08-21T06:49:59;27.30;54.00
36774;DHT22;22730;51.980;5.934;2023-08-21T06:52:28;27.30;53.90
36774;DHT22;22730;51.980;5.934;2023-08-21T06:54:54;27.20;54.10
36774;DHT22;22730;51.980;5.934;2023-08-21T06:57:19;27.30;54.10
36774;DHT22;22730;51.980;5.934;2023-08-21T06:59:45;27.30;53.80
36774;DHT22;22730;51.980;5.934;2023-08-21T07:02:11;27.40;53.90
36774;DHT22;22730;51.980;5.934;2023-08-21T07:04:37;27.40;53.90
36774;DHT22;22730;51.980;5.934;2023-08-21T07:07:03;27.40;53.80
36774;DHT22;22730;51.980;5.934;2023-08-21T07:09:29;27.50;53.70
36774;DHT22;22730;51.980;5.934;2023-08-21T07:11:55;27.50;53.60
36774;DHT22;22730;51.980;5.934;2023-08-21T07:14:20;27.60;53.60
36774;DHT22;22730;51.980;5.934;2023-08-21T07:16:46;27.60;53.50
36774;DHT22;22730;51.980;5.934;2023-08-21T07:19:12;27.60;53.40
36774;DHT22;22730;51.980;5.934;2023-08-21T07:21:38;27.70;53.30
36774;DHT22;22730;51.980;5.934;2023-08-21T07:24:04;27.80;53.20
36774;DHT22;22730;51.980;5.934;2023-08-21T07:26:30;27.80;53.10
36774;DHT22;22730;51.980;5.934;2023-08-21T07:28:56;27.70;53.40
36774;DHT22;22730;51.980;5.934;2023-08-21T07:31:22;27.70;53.40
36774;DHT22;22730;51.980;5.934;2023-08-21T07:33:48;27.50;53.40
36774;DHT22;22730;51.980;5.934;2023-08-21T07:36:14;27.30;53.60
36774;DHT22;22730;51.980;5.934;2023-08-21T07:38:46;27.30;54.10
36774;DHT22;22730;51.980;5.934;2023-08-21T07:41:12;27.40;53.30
36774;DHT22;22730;51.980;5.934;2023-08-21T07:43:40;27.50;53.10
36774;DHT22;22730;51.980;5.934;2023-08-21T07:46:09;27.50;53.00
36774;DHT22;22730;51.980;5.934;2023-08-21T07:48:38;27.50;52.90
36774;DHT22;22730;51.980;5.934;2023-08-21T07:51:03;27.50;52.70
36774;DHT22;22730;51.980;5.934;2023-08-21T07:53:29;27.50;52.50
36774;DHT22;22730;51.980;5.934;2023-08-21T07:56:00;27.40;52.80
36774;DHT22;22730;51.980;5.934;2023-08-21T07:58:26;27.40;52.60
36774;DHT22;22730;51.980;5.934;2023-08-21T08:00:51;27.40;52.60
36774;DHT22;22730;51.980;5.934;2023-08-21T08:03:17;27.20;52.80
36774;DHT22;22730;51.980;5.934;2023-08-21T08:05:43;27.10;53.00
36774;DHT22;22730;51.980;5.934;2023-08-21T08:08:09;27.10;52.80
36774;DHT22;22730;51.980;5.934;2023-08-21T08:10:39;26.90;53.00
36774;DHT22;22730;51.980;5.934;2023-08-21T08:13:07;26.90;52.90
36774;DHT22;22730;51.980;5.934;2023-08-21T08:15:33;27.00;52.70
36774;DHT22;22730;51.980;5.934;2023-08-21T08:18:01;27.00;52.70
36774;DHT22;22730;51.980;5.934;2023-08-21T08:20:27;27.00;52.90
36774;DHT22;22730;51.980;5.934;2023-08-21T08:22:53;26.90;53.00
36774;DHT22;22730;51.980;5.934;2023-08-21T08:25:19;27.00;52.90
36774;DHT22;22730;51.980;5.934;2023-08-21T08:27:45;27.10;52.80
36774;DHT22;22730;51.980;5.934;2023-08-21T08:30:11;27.10;52.80
36774;DHT22;22730;51.980;5.934;2023-08-21T08:32:37;27.20;52.80
36774;DHT22;22730;51.980;5.934;2023-08-21T08:35:03;27.20;52.80
36774;DHT22;22730;51.980;5.934;2023-08-21T08:37:29;27.30;52.60
36774;DHT22;22730;51.980;5.934;2023-08-21T08:39:55;27.40;52.60
36774;DHT22;22730;51.980;5.934;2023-08-21T08:42:20;27.30;52.90
36774;DHT22;22730;51.980;5.934;2023-08-21T08:44:47;27.10;53.20
36774;DHT22;22730;51.980;5.934;2023-08-21T08:47:13;27.00;53.20
36774;DHT22;22730;51.980;5.934;2023-08-21T08:49:45;27.10;53.30
36774;DHT22;22730;51.980;5.934;2023-08-21T08:52:14;27.00;53.40
36774;DHT22;22730;51.980;5.934;2023-08-21T08:54:43;26.90;53.50
36774;DHT22;22730;51.980;5.934;2023-08-21T08:57:10;26.90;53.40
36774;DHT22;22730;51.980;5.934;2023-08-21T08:59:36;26.90;53.60
36774;DHT22;22730;51.980;5.934;2023-08-21T09:02:03;26.90;53.60
36774;DHT22;22730;51.980;5.934;2023-08-21T09:04:29;27.00;53.50
36774;DHT22;22730;51.980;5.934;2023-08-21T09:07:11;27.10;53.20
36774;DHT22;22730;51.980;5.934;2023-08-21T09:09:41;27.30;53.10
36774;DHT22;22730;51.980;5.934;2023-08-21T09:12:14;27.30;52.90
36774;DHT22;22730;51.980;5.934;2023-08-21T09:14:42;27.30;52.90
36774;DHT22;22730;51.980;5.934;2023-08-21T09:17:12;27.40;52.80
36774;DHT22;22730;51.980;5.934;2023-08-21T09:19:38;27.50;52.70
36774;DHT22;22730;51.980;5.934;2023-08-21T09:22:14;27.70;52.60
36774;DHT22;22730;51.980;5.934;2023-08-21T09:24:59;27.70;52.60
36774;DHT22;22730;51.980;5.934;2023-08-21T09:27:25;27.50;53.00
36774;DHT22;22730;51.980;5.934;2023-08-21T09:29:52;27.50;53.00
36774;DHT22;22730;51.980;5.934;2023-08-21T09:32:18;27.70;52.70
36774;DHT22;22730;51.980;5.934;2023-08-21T09:34:44;27.80;52.60
36774;DHT22;22730;51.980;5.934;2023-08-21T09:37:11;27.90;52.30
36774;DHT22;22730;51.980;5.934;2023-08-21T09:39:37;28.20;52.00
36774;DHT22;22730;51.980;5.934;2023-08-21T09:42:07;28.30;51.60
36774;DHT22;22730;51.980;5.934;2023-08-21T09:44:38;28.50;51.60
36774;DHT22;22730;51.980;5.934;2023-08-21T09:47:07;28.60;51.60
36774;DHT22;22730;51.980;5.934;2023-08-21T09:49:33;28.70;51.50
36774;DHT22;22730;51.980;5.934;2023-08-21T09:52:00;28.80;51.40
36774;DHT22;22730;51.980;5.934;2023-08-21T09:54:27;28.90;51.20
36774;DHT22;22730;51.980;5.934;2023-08-21T09:56:54;28.90;51.10
36774;DHT22;22730;51.980;5.934;2023-08-21T09:59:23;29.00;51.10
36774;DHT22;22730;51.980;5.934;2023-08-21T10:01:49;29.00;51.10
36774;DHT22;22730;51.980;5.934;2023-08-21T10:04:17;29.00;50.70
36774;DHT22;22730;51.980;5.934;2023-08-21T10:06:44;29.20;50.30
36774;DHT22;22730;51.980;5.934;2023-08-21T10:09:11;29.40;49.70
36774;DHT22;22730;51.980;5.934;2023-08-21T10:11:38;29.50;49.80
36774;DHT22;22730;51.980;5.934;2023-08-21T10:14:04;29.50;50.00
36774;DHT22;22730;51.980;5.934;2023-08-21T10:16:34;29.50;49.40
36774;DHT22;22730;51.980;5.934;2023-08-21T10:19:03;29.60;49.40
36774;DHT22;22730;51.980;5.934;2023-08-21T10:21:35;29.70;49.00
36774;DHT22;22730;51.980;5.934;2023-08-21T10:24:01;29.70;48.80
36774;DHT22;22730;51.980;5.934;2023-08-21T10:26:27;29.70;49.10
36774;DHT22;22730;51.980;5.934;2023-08-21T10:28:54;29.60;49.30
36774;DHT22;22730;51.980;5.934;2023-08-21T10:33:55;29.60;49.10
36774;DHT22;22730;51.980;5.934;2023-08-21T10:39:15;29.90;48.70
36774;DHT22;22730;51.980;5.934;2023-08-21T10:42:09;30.10;48.30
36774;DHT22;22730;51.980;5.934;2023-08-21T10:44:37;30.00;48.30
36774;DHT22;22730;51.980;5.934;2023-08-21T10:49:38;29.60;48.30
36774;DHT22;22730;51.980;5.934;2023-08-21T10:52:04;29.50;48.50
36774;DHT22;22730;51.980;5.934;2023-08-21T10:54:46;29.40;48.30
36774;DHT22;22730;51.980;5.934;2023-08-21T10:57:12;29.40;48.10
36774;DHT22;22730;51.980;5.934;2023-08-21T10:59:37;29.50;48.10
36774;DHT22;22730;51.980;5.934;2023-08-21T11:02:04;29.70;48.30
36774;DHT22;22730;51.980;5.934;2023-08-21T11:04:40;29.80;46.80
36774;DHT22;22730;51.980;5.934;2023-08-21T11:07:07;30.00;47.00
36774;DHT22;22730;51.980;5.934;2023-08-21T11:09:36;29.80;47.30
36774;DHT22;22730;51.980;5.934;2023-08-21T11:12:09;29.80;47.20
36774;DHT22;22730;51.980;5.934;2023-08-21T11:14:35;29.90;46.90
36774;DHT22;22730;51.980;5.934;2023-08-21T11:17:02;29.80;47.00
36774;DHT22;22730;51.980;5.934;2023-08-21T11:19:31;30.00;46.80
36774;DHT22;22730;51.980;5.934;2023-08-21T11:21:57;30.00;46.70
36774;DHT22;22730;51.980;5.934;2023-08-21T11:27:11;30.30;46.40
36774;DHT22;22730;51.980;5.934;2023-08-21T11:29:45;30.30;46.40
36774;DHT22;22730;51.980;5.934;2023-08-21T11:32:22;30.30;46.50
36774;DHT22;22730;51.980;5.934;2023-08-21T11:34:50;30.30;46.50
36774;DHT22;22730;51.980;5.934;2023-08-21T11:37:21;30.40;46.20
36774;DHT22;22730;51.980;5.934;2023-08-21T11:39:53;30.50;46.10
36774;DHT22;22730;51.980;5.934;2023-08-21T11:42:20;30.40;46.50
36774;DHT22;22730;51.980;5.934;2023-08-21T11:44:47;30.20;46.70
36774;DHT22;22730;51.980;5.934;2023-08-21T11:47:13;30.00;46.70
36774;DHT22;22730;51.980;5.934;2023-08-21T11:49:40;29.80;46.80
36774;DHT22;22730;51.980;5.934;2023-08-21T11:52:13;30.00;46.70
36774;DHT22;22730;51.980;5.934;2023-08-21T11:54:41;30.10;46.50
36774;DHT22;22730;51.980;5.934;2023-08-21T11:57:16;30.00;46.60
36774;DHT22;22730;51.980;5.934;2023-08-21T11:59:42;30.10;46.70
36774;DHT22;22730;51.980;5.934;2023-08-21T12:02:17;30.10;46.40
36774;DHT22;22730;51.980;5.934;2023-08-21T12:04:44;30.00;46.70
36774;DHT22;22730;51.980;5.934;2023-08-21T12:07:10;30.00;46.60
36774;DHT22;22730;51.980;5.934;2023-08-21T12:09:36;29.90;46.60
36774;DHT22;22730;51.980;5.934;2023-08-21T12:12:02;29.80;46.90
36774;DHT22;22730;51.980;5.934;2023-08-21T12:14:28;29.50;47.00
36774;DHT22;22730;51.980;5.934;2023-08-21T12:16:55;29.40;46.80
36774;DHT22;22730;51.980;5.934;2023-08-21T12:19:22;29.60;46.70
36774;DHT22;22730;51.980;5.934;2023-08-21T12:21:49;29.70;46.30
36774;DHT22;22730;51.980;5.934;2023-08-21T12:24:15;29.90;45.80
36774;DHT22;22730;51.980;5.934;2023-08-21T12:26:41;29.90;46.10
36774;DHT22;22730;51.980;5.934;2023-08-21T12:29:07;29.70;46.30
36774;DHT22;22730;51.980;5.934;2023-08-21T12:31:32;29.70;46.30
36774;DHT22;22730;51.980;5.934;2023-08-21T12:33:58;29.70;46.40
36774;DHT22;22730;51.980;5.934;2023-08-21T12:36:25;29.80;46.00
36774;DHT22;22730;51.980;5.934;2023-08-21T12:38:51;29.90;46.00
36774;DHT22;22730;51.980;5.934;2023-08-21T12:41:17;30.00;46.10
36774;DHT22;22730;51.980;5.934;2023-08-21T12:43:43;30.00;46.10
36774;DHT22;22730;51.980;5.934;2023-08-21T12:46:08;29.80;46.60
36774;DHT22;22730;51.980;5.934;2023-08-21T12:48:35;29.50;46.70
36774;DHT22;22730;51.980;5.934;2023-08-21T12:51:01;29.50;46.80
36774;DHT22;22730;51.980;5.934;2023-08-21T12:53:28;29.40;46.70
36774;DHT22;22730;51.980;5.934;2023-08-21T12:55:53;29.30;46.80
36774;DHT22;22730;51.980;5.934;2023-08-21T12:58:20;29.20;46.90
36774;DHT22;22730;51.980;5.934;2023-08-21T13:00:45;29.30;46.80
36774;DHT22;22730;51.980;5.934;2023-08-21T13:03:11;29.40;46.50
36774;DHT22;22730;51.980;5.934;2023-08-21T13:05:37;29.40;46.50
36774;DHT22;22730;51.980;5.934;2023-08-21T13:08:03;29.40;46.70
36774;DHT22;22730;51.980;5.934;2023-08-21T13:10:29;29.20;46.80
36774;DHT22;22730;51.980;5.934;2023-08-21T13:12:55;29.20;46.80
36774;DHT22;22730;51.980;5.934;2023-08-21T13:15:21;29.30;46.50
36774;DHT22;22730;51.980;5.934;2023-08-21T13:17:47;29.50;46.00
36774;DHT22;22730;51.980;5.934;2023-08-21T13:20:13;29.80;45.60
36774;DHT22;22730;51.980;5.934;2023-08-21T13:22:49;29.80;45.70
36774;DHT22;22730;51.980;5.934;2023-08-21T13:25:18;29.60;46.20
36774;DHT22;22730;51.980;5.934;2023-08-21T13:27:44;29.40;46.60
36774;DHT22;22730;51.980;5.934;2023-08-21T13:30:10;29.30;46.80
36774;DHT22;22730;51.980;5.934;2023-08-21T13:32:36;29.10;47.00
36774;DHT22;22730;51.980;5.934;2023-08-21T13:35:02;29.00;47.10
36774;DHT22;22730;51.980;5.934;2023-08-21T13:37:30;29.00;47.00
36774;DHT22;22730;51.980;5.934;2023-08-21T13:39:56;29.10;47.00
36774;DHT22;22730;51.980;5.934;2023-08-21T13:42:24;29.10;46.90
36774;DHT22;22730;51.980;5.934;2023-08-21T13:44:51;29.20;46.40
36774;DHT22;22730;51.980;5.934;2023-08-21T13:47:18;29.30;46.50
36774;DHT22;22730;51.980;5.934;2023-08-21T13:49:44;29.30;46.50
36774;DHT22;22730;51.980;5.934;2023-08-21T13:52:10;29.40;46.40
36774;DHT22;22730;51.980;5.934;2023-08-21T13:54:35;29.50;46.10
36774;DHT22;22730;51.980;5.934;2023-08-21T13:57:01;29.60;45.60
36774;DHT22;22730;51.980;5.934;2023-08-21T13:59:27;29.60;45.40
36774;DHT22;22730;51.980;5.934;2023-08-21T14:01:53;29.60;45.90
36774;DHT22;22730;51.980;5.934;2023-08-21T14:04:19;29.50;46.10
36774;DHT22;22730;51.980;5.934;2023-08-21T14:06:44;29.50;46.10
36774;DHT22;22730;51.980;5.934;2023-08-21T14:09:11;29.50;45.90
36774;DHT22;22730;51.980;5.934;2023-08-21T14:11:37;29.50;46.00
36774;DHT22;22730;51.980;5.934;2023-08-21T14:14:02;29.50;46.10
36774;DHT22;22730;51.980;5.934;2023-08-21T14:16:28;29.50;45.80
36774;DHT22;22730;51.980;5.934;2023-08-21T14:18:54;29.50;45.70
36774;DHT22;22730;51.980;5.934;2023-08-21T14:21:20;29.30;46.20
36774;DHT22;22730;51.980;5.934;2023-08-21T14:23:46;29.40;46.00
36774;DHT22;22730;51.980;5.934;2023-08-21T14:26:12;29.20;46.40
36774;DHT22;22730;51.980;5.934;2023-08-21T14:28:38;29.10;46.40
36774;DHT22;22730;51.980;5.934;2023-08-21T14:31:03;29.10;46.20
36774;DHT22;22730;51.980;5.934;2023-08-21T14:33:30;29.10;46.30
36774;DHT22;22730;51.980;5.934;2023-08-21T14:35:55;28.90;46.40
36774;DHT22;22730;51.980;5.934;2023-08-21T14:38:22;28.80;46.30
36774;DHT22;22730;51.980;5.934;2023-08-21T14:40:48;28.90;46.00
36774;DHT22;22730;51.980;5.934;2023-08-21T14:43:14;28.90;46.20
36774;DHT22;22730;51.980;5.934;2023-08-21T14:45:40;28.80;46.20
36774;DHT22;22730;51.980;5.934;2023-08-21T14:48:06;28.80;46.20
36774;DHT22;22730;51.980;5.934;2023-08-21T14:50:32;28.90;45.30
36774;DHT22;22730;51.980;5.934;2023-08-21T14:52:58;29.10;45.00
36774;DHT22;22730;51.980;5.934;2023-08-21T14:55:23;29.10;44.50
36774;DHT22;22730;51.980;5.934;2023-08-21T14:57:49;29.10;45.00
36774;DHT22;22730;51.980;5.934;2023-08-21T15:00:15;29.10;45.30
36774;DHT22;22730;51.980;5.934;2023-08-21T15:02:42;29.10;45.20
36774;DHT22;22730;51.980;5.934;2023-08-21T15:05:08;29.10;45.00
36774;DHT22;22730;51.980;5.934;2023-08-21T15:07:34;29.20;44.70
36774;DHT22;22730;51.980;5.934;2023-08-21T15:10:00;29.20;44.90
36774;DHT22;22730;51.980;5.934;2023-08-21T15:12:26;29.20;45.20
36774;DHT22;22730;51.980;5.934;2023-08-21T15:14:52;29.10;45.30
36774;DHT22;22730;51.980;5.934;2023-08-21T15:17:18;29.00;45.50
36774;DHT22;22730;51.980;5.934;2023-08-21T15:19:44;29.00;45.20
36774;DHT22;22730;51.980;5.934;2023-08-21T15:22:10;29.00;45.00
36774;DHT22;22730;51.980;5.934;2023-08-21T15:24:35;29.10;44.80
36774;DHT22;22730;51.980;5.934;2023-08-21T15:27:01;29.10;45.10
36774;DHT22;22730;51.980;5.934;2023-08-21T15:29:28;29.00;45.10
36774;DHT22;22730;51.980;5.934;2023-08-21T15:31:54;29.10;44.70
36774;DHT22;22730;51.980;5.934;2023-08-21T15:34:20;29.10;44.20
36774;DHT22;22730;51.980;5.934;2023-08-21T15:36:46;29.20;44.40
36774;DHT22;22730;51.980;5.934;2023-08-21T15:39:12;29.10;44.30
36774;DHT22;22730;51.980;5.934;2023-08-21T15:41:37;29.10;44.80
36774;DHT22;22730;51.980;5.934;2023-08-21T15:44:03;29.00;45.30
36774;DHT22;22730;51.980;5.934;2023-08-21T15:46:29;29.00;45.00